Terminal Aerodrome Forecast
Issued by NWS Paducah, KY

Home | Current Version | Previous Version | Text Only | Print | Product List | Glossary On
Versions: 1 2 3 4 5 6 7 8 9 10 11 12 13 14 15
764
FTUS43 KPAH 182006 AAA
TAFEVV
TAF AMD
KEVV 182006Z 1820/1918 06004KT 5SM -SHRA SCT015 OVC040
     FM182100 09003KT 6SM -SHRA BKN012 OVC035
      TEMPO 1821/1822 4SM -SHRA OVC010
     FM190100 10002KT P6SM BKN003 OVC040 PROB30 1912/1916 4SM -TSRA
      BKN003CB OVC010
     FM191600 24005KT P6SM SCT008 BKN045 PROB30 1916/1918 4SM -TSRA
      BKN015CB=

USA.gov is the U.S. government's official web portal to all federal, state and local government web resources and services.